Pangborn Memorial Airport
KEAT : now visible

Airfield :











YOU CAN JOIN US ON...

 
LOGIN :

Register | Disclaimer

   EN    FR    IT 

 









Legend :    VFR   Marginal VFR   IFR   Intensive IFR   Very Intensive IFR
Visi :
Ceiling :
>= 8 km
>= 3000ft
5 to 8 km
1000 to 3000 ft
1500m to 5 km
500 to 1000 ft
800 to 1500m
200 to 500 ft
< 800m
< 200 ft
Symbols :   Thunderstorms  Fog  Heavy snow  Heavy precipitations  Wind > 20 kt






- Airport Elevation : 1249 ft


KEAT - Pangborn Memorial

CURRENT METAR :
  • 042255Z AUTO 11008KT 10SM CLR 32/07 A2994 RMK AO2 SLP129 T03220072

EXPIRED METARs :
  • 042155Z AUTO 14006KT 10SM CLR 32/07 A2997 RMK AO2 SLP136 T03170067
  • 042055Z AUTO 07007KT 10SM CLR 31/07 A2999 RMK AO2 SLP144 T03110072 58021

TAF KEAT
Valid from the 04 at 18:00 until the 05 at 18:00 UTC


041720Z 0418/0518 34008KT P6SM SKC
FM041900 14004KT P6SM SKC
FM050600 33007KT P6SM SKC
KZSE FIR / North America



MET'MAP, your aeronautical weather chart ! - Copyright ORBIFLY December 2007 - Disclaimer

ORBIFLY MET'MAP TEAM :

Programming & Development : Alexandra Zaïnal
Concept & original design : Baudouin d'Aumeries
Assistance for programming : Marc-Olivier Méhu
Technical & hardware support : Manuel Goepfert

Contact : metmap@orbifly.com




SOURCES & CREDITS :

   NOAA       Earth
Advisory